Palo, Michigan
Current Conditions -  °F | °C
As of 5:33 PM on Friday 28 Nov 2014 (Local Time) from KY70 Reporting Station
Overcast Overcast  
Wind Chill: 15°   Ceiling: 4600
Heat Index: 26°   Visibility: 10mi
Dew Point: 20°   Wind: 13mph
Humidity: 79%   Direction: 150°SSE
Pressure: 30.07"   Gusts: NA
Location:  43.11°N, 84.99°W
Report Text: KY70 282233Z AUTO 15011KT 10SM BKN046 OVC070 M03/M07 A3007 RMK AO2 T10341066
Loading
Personal Weather Stations






























Interactive Weather Map New forecast layout! Learn more

10-Day Weather Forecast

Advertisements
Track Severe Weather on mobile